sensor_id;sensor_type;location;lat;lon;timestamp;temperature;humidity
12413;DHT22;13877;18.896;-99.222;2023-06-05T00:01:59;32.90;37.50
12413;DHT22;13877;18.896;-99.222;2023-06-05T00:04:26;32.50;37.30
12413;DHT22;13877;18.896;-99.222;2023-06-05T00:06:54;32.20;36.80
12413;DHT22;13877;18.896;-99.222;2023-06-05T00:09:23;32.00;36.20
12413;DHT22;13877;18.896;-99.222;2023-06-05T00:11:50;31.80;36.10
12413;DHT22;13877;18.896;-99.222;2023-06-05T00:14:17;31.70;39.80
12413;DHT22;13877;18.896;-99.222;2023-06-05T00:16:44;31.60;38.20
12413;DHT22;13877;18.896;-99.222;2023-06-05T00:19:11;31.90;38.60
12413;DHT22;13877;18.896;-99.222;2023-06-05T00:21:38;32.70;38.70
12413;DHT22;13877;18.896;-99.222;2023-06-05T00:24:05;33.40;38.80
12413;DHT22;13877;18.896;-99.222;2023-06-05T00:26:32;33.80;39.50
12413;DHT22;13877;18.896;-99.222;2023-06-05T00:29:00;33.70;36.10
12413;DHT22;13877;18.896;-99.222;2023-06-05T00:31:27;33.80;38.40
12413;DHT22;13877;18.896;-99.222;2023-06-05T00:33:54;33.70;39.20
12413;DHT22;13877;18.896;-99.222;2023-06-05T00:36:21;33.50;37.90
12413;DHT22;13877;18.896;-99.222;2023-06-05T00:38:51;33.30;38.10
12413;DHT22;13877;18.896;-99.222;2023-06-05T00:41:19;33.10;39.30
12413;DHT22;13877;18.896;-99.222;2023-06-05T00:43:45;32.60;40.70
12413;DHT22;13877;18.896;-99.222;2023-06-05T00:46:12;31.80;42.40
12413;DHT22;13877;18.896;-99.222;2023-06-05T00:48:41;31.20;44.80
12413;DHT22;13877;18.896;-99.222;2023-06-05T00:51:10;30.70;41.80
12413;DHT22;13877;18.896;-99.222;2023-06-05T00:53:42;30.50;42.90
12413;DHT22;13877;18.896;-99.222;2023-06-05T00:56:11;30.40;41.60
12413;DHT22;13877;18.896;-99.222;2023-06-05T00:58:38;30.20;41.60
12413;DHT22;13877;18.896;-99.222;2023-06-05T01:01:06;29.90;41.00
12413;DHT22;13877;18.896;-99.222;2023-06-05T01:03:36;29.70;41.40
12413;DHT22;13877;18.896;-99.222;2023-06-05T01:06:07;29.60;42.40
12413;DHT22;13877;18.896;-99.222;2023-06-05T01:08:35;29.50;41.80
12413;DHT22;13877;18.896;-99.222;2023-06-05T01:14:27;29.30;43.10
12413;DHT22;13877;18.896;-99.222;2023-06-05T01:16:58;29.20;43.20
12413;DHT22;13877;18.896;-99.222;2023-06-05T01:19:27;29.20;43.80
12413;DHT22;13877;18.896;-99.222;2023-06-05T01:21:58;29.10;43.50
12413;DHT22;13877;18.896;-99.222;2023-06-05T01:24:25;29.10;43.40
12413;DHT22;13877;18.896;-99.222;2023-06-05T01:30:07;29.10;43.70
12413;DHT22;13877;18.896;-99.222;2023-06-05T01:33:17;29.10;43.20
12413;DHT22;13877;18.896;-99.222;2023-06-05T01:35:44;29.40;43.10
12413;DHT22;13877;18.896;-99.222;2023-06-05T01:38:11;29.60;43.60
12413;DHT22;13877;18.896;-99.222;2023-06-05T01:40:40;29.60;43.90
12413;DHT22;13877;18.896;-99.222;2023-06-05T01:43:07;29.60;44.20
12413;DHT22;13877;18.896;-99.222;2023-06-05T01:45:37;29.60;44.40
12413;DHT22;13877;18.896;-99.222;2023-06-05T01:48:09;29.60;44.30
12413;DHT22;13877;18.896;-99.222;2023-06-05T01:50:39;29.60;44.10
12413;DHT22;13877;18.896;-99.222;2023-06-05T01:53:08;29.50;44.10
12413;DHT22;13877;18.896;-99.222;2023-06-05T01:55:37;29.50;43.50
12413;DHT22;13877;18.896;-99.222;2023-06-05T01:58:07;29.50;43.50
12413;DHT22;13877;18.896;-99.222;2023-06-05T02:00:34;29.40;43.70
12413;DHT22;13877;18.896;-99.222;2023-06-05T02:03:03;29.30;43.80
12413;DHT22;13877;18.896;-99.222;2023-06-05T02:05:30;29.30;43.80
12413;DHT22;13877;18.896;-99.222;2023-06-05T02:07:59;29.30;43.70
12413;DHT22;13877;18.896;-99.222;2023-06-05T02:10:31;29.20;43.70
12413;DHT22;13877;18.896;-99.222;2023-06-05T02:12:58;29.20;44.20
12413;DHT22;13877;18.896;-99.222;2023-06-05T02:15:26;29.10;43.80
12413;DHT22;13877;18.896;-99.222;2023-06-05T02:18:01;29.20;43.80
12413;DHT22;13877;18.896;-99.222;2023-06-05T02:20:31;29.10;43.30
12413;DHT22;13877;18.896;-99.222;2023-06-05T02:22:58;29.00;43.80
12413;DHT22;13877;18.896;-99.222;2023-06-05T02:25:29;28.80;43.00
12413;DHT22;13877;18.896;-99.222;2023-06-05T02:27:56;28.80;43.00
12413;DHT22;13877;18.896;-99.222;2023-06-05T02:30:23;28.80;43.00
12413;DHT22;13877;18.896;-99.222;2023-06-05T02:32:51;28.70;43.20
12413;DHT22;13877;18.896;-99.222;2023-06-05T02:35:23;28.60;42.40
12413;DHT22;13877;18.896;-99.222;2023-06-05T02:37:51;28.70;42.20
12413;DHT22;13877;18.896;-99.222;2023-06-05T02:40:19;28.70;42.50
12413;DHT22;13877;18.896;-99.222;2023-06-05T02:42:47;28.50;42.10
12413;DHT22;13877;18.896;-99.222;2023-06-05T02:45:14;28.40;42.00
12413;DHT22;13877;18.896;-99.222;2023-06-05T02:47:42;28.30;42.40
12413;DHT22;13877;18.896;-99.222;2023-06-05T02:50:12;28.30;42.60
12413;DHT22;13877;18.896;-99.222;2023-06-05T02:52:43;28.30;42.60
12413;DHT22;13877;18.896;-99.222;2023-06-05T02:55:19;28.10;43.10
12413;DHT22;13877;18.896;-99.222;2023-06-05T02:57:47;28.00;43.70
12413;DHT22;13877;18.896;-99.222;2023-06-05T03:00:18;27.80;44.10
12413;DHT22;13877;18.896;-99.222;2023-06-05T03:02:51;27.50;44.10
12413;DHT22;13877;18.896;-99.222;2023-06-05T03:05:22;27.40;44.30
12413;DHT22;13877;18.896;-99.222;2023-06-05T03:07:58;27.50;42.60
12413;DHT22;13877;18.896;-99.222;2023-06-05T03:10:28;27.70;40.90
12413;DHT22;13877;18.896;-99.222;2023-06-05T03:12:56;27.80;40.80
12413;DHT22;13877;18.896;-99.222;2023-06-05T03:15:25;27.80;40.10
12413;DHT22;13877;18.896;-99.222;2023-06-05T03:17:54;27.80;41.20
12413;DHT22;13877;18.896;-99.222;2023-06-05T03:20:22;27.70;42.00
12413;DHT22;13877;18.896;-99.222;2023-06-05T03:22:49;27.60;41.90
12413;DHT22;13877;18.896;-99.222;2023-06-05T03:25:17;27.50;42.70
12413;DHT22;13877;18.896;-99.222;2023-06-05T03:27:45;27.40;42.80
12413;DHT22;13877;18.896;-99.222;2023-06-05T03:30:15;27.40;41.70
12413;DHT22;13877;18.896;-99.222;2023-06-05T03:32:48;27.30;41.90
12413;DHT22;13877;18.896;-99.222;2023-06-05T03:35:16;27.30;41.10
12413;DHT22;13877;18.896;-99.222;2023-06-05T03:37:44;27.30;41.00
12413;DHT22;13877;18.896;-99.222;2023-06-05T03:40:14;27.30;41.30
12413;DHT22;13877;18.896;-99.222;2023-06-05T03:42:44;27.10;41.60
12413;DHT22;13877;18.896;-99.222;2023-06-05T03:45:12;27.00;42.00
12413;DHT22;13877;18.896;-99.222;2023-06-05T03:47:40;27.00;40.80
12413;DHT22;13877;18.896;-99.222;2023-06-05T03:50:10;26.90;42.30
12413;DHT22;13877;18.896;-99.222;2023-06-05T03:52:41;26.70;42.50
12413;DHT22;13877;18.896;-99.222;2023-06-05T03:55:09;26.50;42.20
12413;DHT22;13877;18.896;-99.222;2023-06-05T03:57:37;26.30;43.40
12413;DHT22;13877;18.896;-99.222;2023-06-05T04:00:06;26.10;43.00
12413;DHT22;13877;18.896;-99.222;2023-06-05T04:02:40;26.20;44.60
12413;DHT22;13877;18.896;-99.222;2023-06-05T04:05:13;26.00;44.20
12413;DHT22;13877;18.896;-99.222;2023-06-05T04:07:41;25.80;44.00
12413;DHT22;13877;18.896;-99.222;2023-06-05T04:10:11;25.70;45.50
12413;DHT22;13877;18.896;-99.222;2023-06-05T04:12:38;25.50;45.00
12413;DHT22;13877;18.896;-99.222;2023-06-05T04:15:07;25.40;43.80
12413;DHT22;13877;18.896;-99.222;2023-06-05T04:17:36;25.70;43.90
12413;DHT22;13877;18.896;-99.222;2023-06-05T04:20:05;25.70;44.10
12413;DHT22;13877;18.896;-99.222;2023-06-05T04:22:37;25.70;44.90
12413;DHT22;13877;18.896;-99.222;2023-06-05T04:25:04;25.70;45.40
12413;DHT22;13877;18.896;-99.222;2023-06-05T04:27:31;25.80;45.60
12413;DHT22;13877;18.896;-99.222;2023-06-05T04:29:58;25.60;45.10
12413;DHT22;13877;18.896;-99.222;2023-06-05T04:32:25;26.20;43.20
12413;DHT22;13877;18.896;-99.222;2023-06-05T04:34:52;26.30;45.10
12413;DHT22;13877;18.896;-99.222;2023-06-05T04:37:19;26.00;45.50
12413;DHT22;13877;18.896;-99.222;2023-06-05T04:39:46;25.60;47.20
12413;DHT22;13877;18.896;-99.222;2023-06-05T04:42:15;25.30;47.70
12413;DHT22;13877;18.896;-99.222;2023-06-05T04:44:47;25.30;48.10
12413;DHT22;13877;18.896;-99.222;2023-06-05T04:47:20;25.10;48.40
12413;DHT22;13877;18.896;-99.222;2023-06-05T04:49:47;25.30;46.90
12413;DHT22;13877;18.896;-99.222;2023-06-05T04:52:18;25.50;46.80
12413;DHT22;13877;18.896;-99.222;2023-06-05T04:54:48;25.40;48.60
12413;DHT22;13877;18.896;-99.222;2023-06-05T04:57:16;25.30;49.00
12413;DHT22;13877;18.896;-99.222;2023-06-05T04:59:45;25.10;49.40
12413;DHT22;13877;18.896;-99.222;2023-06-05T05:02:14;24.80;49.10
12413;DHT22;13877;18.896;-99.222;2023-06-05T05:04:43;24.60;49.50
12413;DHT22;13877;18.896;-99.222;2023-06-05T05:07:11;24.40;49.80
12413;DHT22;13877;18.896;-99.222;2023-06-05T05:09:42;24.50;49.30
12413;DHT22;13877;18.896;-99.222;2023-06-05T05:12:10;24.80;47.90
12413;DHT22;13877;18.896;-99.222;2023-06-05T05:14:38;25.10;46.00
12413;DHT22;13877;18.896;-99.222;2023-06-05T05:17:08;25.30;45.70
12413;DHT22;13877;18.896;-99.222;2023-06-05T05:19:36;25.50;45.90
12413;DHT22;13877;18.896;-99.222;2023-06-05T05:22:08;25.40;45.40
12413;DHT22;13877;18.896;-99.222;2023-06-05T05:24:35;25.10;46.10
12413;DHT22;13877;18.896;-99.222;2023-06-05T05:27:03;24.80;46.70
12413;DHT22;13877;18.896;-99.222;2023-06-05T05:29:30;24.80;47.50
12413;DHT22;13877;18.896;-99.222;2023-06-05T05:32:01;24.90;47.90
12413;DHT22;13877;18.896;-99.222;2023-06-05T05:34:27;25.20;48.40
12413;DHT22;13877;18.896;-99.222;2023-06-05T05:36:55;25.10;48.50
12413;DHT22;13877;18.896;-99.222;2023-06-05T05:39:22;25.00;50.20
12413;DHT22;13877;18.896;-99.222;2023-06-05T05:41:49;24.80;50.50
12413;DHT22;13877;18.896;-99.222;2023-06-05T05:44:17;24.80;50.80
12413;DHT22;13877;18.896;-99.222;2023-06-05T05:46:46;24.60;52.20
12413;DHT22;13877;18.896;-99.222;2023-06-05T05:49:16;24.40;53.80
12413;DHT22;13877;18.896;-99.222;2023-06-05T05:51:43;24.70;54.70
12413;DHT22;13877;18.896;-99.222;2023-06-05T05:54:10;24.80;56.50
12413;DHT22;13877;18.896;-99.222;2023-06-05T05:56:37;24.80;57.00
12413;DHT22;13877;18.896;-99.222;2023-06-05T05:59:04;24.60;57.60
12413;DHT22;13877;18.896;-99.222;2023-06-05T06:01:31;24.30;57.80
12413;DHT22;13877;18.896;-99.222;2023-06-05T06:03:58;24.20;59.40
12413;DHT22;13877;18.896;-99.222;2023-06-05T06:06:25;24.30;62.60
12413;DHT22;13877;18.896;-99.222;2023-06-05T06:08:58;24.20;61.80
12413;DHT22;13877;18.896;-99.222;2023-06-05T06:11:25;24.30;63.00
12413;DHT22;13877;18.896;-99.222;2023-06-05T06:13:53;24.70;62.90
12413;DHT22;13877;18.896;-99.222;2023-06-05T06:16:20;24.80;62.20
12413;DHT22;13877;18.896;-99.222;2023-06-05T06:18:47;24.60;59.30
12413;DHT22;13877;18.896;-99.222;2023-06-05T06:21:13;24.30;59.70
12413;DHT22;13877;18.896;-99.222;2023-06-05T06:23:42;24.20;59.50
12413;DHT22;13877;18.896;-99.222;2023-06-05T06:26:12;24.00;60.20
12413;DHT22;13877;18.896;-99.222;2023-06-05T06:28:41;23.80;59.80
12413;DHT22;13877;18.896;-99.222;2023-06-05T06:31:09;23.70;60.50
12413;DHT22;13877;18.896;-99.222;2023-06-05T06:33:36;23.50;61.30
12413;DHT22;13877;18.896;-99.222;2023-06-05T06:36:04;23.30;61.70
12413;DHT22;13877;18.896;-99.222;2023-06-05T06:38:31;23.20;60.90
12413;DHT22;13877;18.896;-99.222;2023-06-05T06:40:59;23.30;59.70
12413;DHT22;13877;18.896;-99.222;2023-06-05T06:43:26;23.30;60.30
12413;DHT22;13877;18.896;-99.222;2023-06-05T06:46:12;23.60;59.20
12413;DHT22;13877;18.896;-99.222;2023-06-05T06:48:39;23.90;57.30
12413;DHT22;13877;18.896;-99.222;2023-06-05T06:51:06;24.20;56.80
12413;DHT22;13877;18.896;-99.222;2023-06-05T06:53:33;24.40;56.50
12413;DHT22;13877;18.896;-99.222;2023-06-05T06:56:00;24.50;56.60
12413;DHT22;13877;18.896;-99.222;2023-06-05T06:58:28;24.60;55.70
12413;DHT22;13877;18.896;-99.222;2023-06-05T07:00:54;24.30;56.70
12413;DHT22;13877;18.896;-99.222;2023-06-05T07:03:21;24.10;57.40
12413;DHT22;13877;18.896;-99.222;2023-06-05T07:05:50;24.10;57.70
12413;DHT22;13877;18.896;-99.222;2023-06-05T07:08:18;24.30;58.60
12413;DHT22;13877;18.896;-99.222;2023-06-05T07:10:45;24.50;58.90
12413;DHT22;13877;18.896;-99.222;2023-06-05T07:13:12;24.50;59.00
12413;DHT22;13877;18.896;-99.222;2023-06-05T07:15:39;24.40;59.80
12413;DHT22;13877;18.896;-99.222;2023-06-05T07:18:06;24.50;60.50
12413;DHT22;13877;18.896;-99.222;2023-06-05T07:20:33;24.40;61.20
12413;DHT22;13877;18.896;-99.222;2023-06-05T07:23:00;24.40;62.80
12413;DHT22;13877;18.896;-99.222;2023-06-05T07:25:27;24.50;63.30
12413;DHT22;13877;18.896;-99.222;2023-06-05T07:27:54;24.50;63.90
12413;DHT22;13877;18.896;-99.222;2023-06-05T07:30:21;24.50;65.40
12413;DHT22;13877;18.896;-99.222;2023-06-05T07:32:49;24.60;65.00
12413;DHT22;13877;18.896;-99.222;2023-06-05T07:35:15;24.60;65.90
12413;DHT22;13877;18.896;-99.222;2023-06-05T07:37:42;24.60;65.90
12413;DHT22;13877;18.896;-99.222;2023-06-05T07:40:10;24.70;66.10
12413;DHT22;13877;18.896;-99.222;2023-06-05T07:42:37;24.80;65.70
12413;DHT22;13877;18.896;-99.222;2023-06-05T07:45:04;24.70;65.90
12413;DHT22;13877;18.896;-99.222;2023-06-05T07:47:32;24.70;65.50
12413;DHT22;13877;18.896;-99.222;2023-06-05T07:50:00;24.80;65.90
12413;DHT22;13877;18.896;-99.222;2023-06-05T07:52:27;24.70;65.40
12413;DHT22;13877;18.896;-99.222;2023-06-05T07:54:54;24.60;66.00
12413;DHT22;13877;18.896;-99.222;2023-06-05T07:57:22;24.50;66.00
12413;DHT22;13877;18.896;-99.222;2023-06-05T07:59:50;24.30;66.70
12413;DHT22;13877;18.896;-99.222;2023-06-05T08:02:18;24.10;67.10
12413;DHT22;13877;18.896;-99.222;2023-06-05T08:04:45;23.80;65.80
12413;DHT22;13877;18.896;-99.222;2023-06-05T08:07:12;23.80;66.20
12413;DHT22;13877;18.896;-99.222;2023-06-05T08:09:40;23.70;66.40
12413;DHT22;13877;18.896;-99.222;2023-06-05T08:12:08;23.80;65.60
12413;DHT22;13877;18.896;-99.222;2023-06-05T08:14:35;23.90;65.20
12413;DHT22;13877;18.896;-99.222;2023-06-05T08:17:04;24.10;65.10
12413;DHT22;13877;18.896;-99.222;2023-06-05T08:19:30;24.10;64.90
12413;DHT22;13877;18.896;-99.222;2023-06-05T08:21:58;24.20;64.80
12413;DHT22;13877;18.896;-99.222;2023-06-05T08:24:25;24.30;64.60
12413;DHT22;13877;18.896;-99.222;2023-06-05T08:26:53;24.50;64.90
12413;DHT22;13877;18.896;-99.222;2023-06-05T08:29:20;24.40;64.90
12413;DHT22;13877;18.896;-99.222;2023-06-05T08:31:47;24.40;64.80
12413;DHT22;13877;18.896;-99.222;2023-06-05T08:34:14;24.30;64.90
12413;DHT22;13877;18.896;-99.222;2023-06-05T08:36:41;24.30;65.30
12413;DHT22;13877;18.896;-99.222;2023-06-05T08:39:08;24.30;65.60
12413;DHT22;13877;18.896;-99.222;2023-06-05T08:41:36;24.20;66.30
12413;DHT22;13877;18.896;-99.222;2023-06-05T08:44:04;24.10;66.40
12413;DHT22;13877;18.896;-99.222;2023-06-05T08:46:34;24.10;66.40
12413;DHT22;13877;18.896;-99.222;2023-06-05T08:49:10;24.10;66.60
12413;DHT22;13877;18.896;-99.222;2023-06-05T08:51:38;24.10;67.10
12413;DHT22;13877;18.896;-99.222;2023-06-05T08:54:09;24.00;67.10
12413;DHT22;13877;18.896;-99.222;2023-06-05T08:56:41;24.00;66.60
12413;DHT22;13877;18.896;-99.222;2023-06-05T08:59:08;24.00;66.80
12413;DHT22;13877;18.896;-99.222;2023-06-05T09:01:36;23.90;67.10
12413;DHT22;13877;18.896;-99.222;2023-06-05T09:04:03;23.80;67.10
12413;DHT22;13877;18.896;-99.222;2023-06-05T09:06:31;23.70;67.20
12413;DHT22;13877;18.896;-99.222;2023-06-05T09:08:59;23.60;67.00
12413;DHT22;13877;18.896;-99.222;2023-06-05T09:11:29;23.70;66.70
12413;DHT22;13877;18.896;-99.222;2023-06-05T09:13:58;23.80;66.70
12413;DHT22;13877;18.896;-99.222;2023-06-05T09:16:40;23.80;66.30
12413;DHT22;13877;18.896;-99.222;2023-06-05T09:19:10;23.80;66.30
12413;DHT22;13877;18.896;-99.222;2023-06-05T09:21:37;23.80;66.70
12413;DHT22;13877;18.896;-99.222;2023-06-05T09:26:55;23.50;66.20
12413;DHT22;13877;18.896;-99.222;2023-06-05T09:29:34;23.50;64.50
12413;DHT22;13877;18.896;-99.222;2023-06-05T09:32:04;23.30;64.10
12413;DHT22;13877;18.896;-99.222;2023-06-05T09:34:34;23.30;64.40
12413;DHT22;13877;18.896;-99.222;2023-06-05T09:37:06;23.40;66.10
12413;DHT22;13877;18.896;-99.222;2023-06-05T09:39:35;23.60;68.20
12413;DHT22;13877;18.896;-99.222;2023-06-05T09:42:03;23.60;68.80
12413;DHT22;13877;18.896;-99.222;2023-06-05T09:44:31;23.60;69.80
12413;DHT22;13877;18.896;-99.222;2023-06-05T09:46:59;23.60;70.30
12413;DHT22;13877;18.896;-99.222;2023-06-05T09:49:46;23.50;71.00
12413;DHT22;13877;18.896;-99.222;2023-06-05T09:52:16;23.40;71.30
12413;DHT22;13877;18.896;-99.222;2023-06-05T09:54:44;23.50;71.80
12413;DHT22;13877;18.896;-99.222;2023-06-05T09:57:12;23.50;72.50
12413;DHT22;13877;18.896;-99.222;2023-06-05T09:59:59;23.50;72.80
12413;DHT22;13877;18.896;-99.222;2023-06-05T10:02:35;23.50;72.80
12413;DHT22;13877;18.896;-99.222;2023-06-05T10:05:04;23.40;73.20
12413;DHT22;13877;18.896;-99.222;2023-06-05T10:07:37;23.30;73.90
12413;DHT22;13877;18.896;-99.222;2023-06-05T10:10:05;23.10;74.10
12413;DHT22;13877;18.896;-99.222;2023-06-05T10:12:33;23.30;73.80
12413;DHT22;13877;18.896;-99.222;2023-06-05T10:15:01;23.30;74.00
12413;DHT22;13877;18.896;-99.222;2023-06-05T10:17:28;23.30;74.40
12413;DHT22;13877;18.896;-99.222;2023-06-05T10:19:56;23.10;75.10
12413;DHT22;13877;18.896;-99.222;2023-06-05T10:22:24;23.00;75.50
12413;DHT22;13877;18.896;-99.222;2023-06-05T10:25:00;22.90;76.00
12413;DHT22;13877;18.896;-99.222;2023-06-05T10:31:10;22.90;77.20
12413;DHT22;13877;18.896;-99.222;2023-06-05T10:33:45;22.90;77.90
12413;DHT22;13877;18.896;-99.222;2023-06-05T10:36:20;22.90;78.40
12413;DHT22;13877;18.896;-99.222;2023-06-05T10:38:51;22.90;78.50
12413;DHT22;13877;18.896;-99.222;2023-06-05T10:41:19;22.80;79.10
12413;DHT22;13877;18.896;-99.222;2023-06-05T10:43:51;22.70;79.40
12413;DHT22;13877;18.896;-99.222;2023-06-05T10:46:35;22.70;80.10
12413;DHT22;13877;18.896;-99.222;2023-06-05T10:49:16;22.60;80.50
12413;DHT22;13877;18.896;-99.222;2023-06-05T10:51:53;22.70;81.00
12413;DHT22;13877;18.896;-99.222;2023-06-05T10:56:59;22.70;81.70
12413;DHT22;13877;18.896;-99.222;2023-06-05T10:59:39;22.60;81.70
12413;DHT22;13877;18.896;-99.222;2023-06-05T11:07:32;22.40;83.00
12413;DHT22;13877;18.896;-99.222;2023-06-05T11:10:16;22.60;83.20
12413;DHT22;13877;18.896;-99.222;2023-06-05T11:12:53;22.60;83.90
12413;DHT22;13877;18.896;-99.222;2023-06-05T11:17:50;22.60;84.30
12413;DHT22;13877;18.896;-99.222;2023-06-05T11:23:16;22.30;85.90
12413;DHT22;13877;18.896;-99.222;2023-06-05T11:25:43;22.20;86.30
12413;DHT22;13877;18.896;-99.222;2023-06-05T11:28:11;22.20;86.50
12413;DHT22;13877;18.896;-99.222;2023-06-05T11:30:41;22.10;86.60
12413;DHT22;13877;18.896;-99.222;2023-06-05T11:33:17;22.10;87.00
12413;DHT22;13877;18.896;-99.222;2023-06-05T11:35:45;22.10;87.50
12413;DHT22;13877;18.896;-99.222;2023-06-05T11:38:17;21.90;88.90
12413;DHT22;13877;18.896;-99.222;2023-06-05T11:40:45;21.70;89.50
12413;DHT22;13877;18.896;-99.222;2023-06-05T11:43:13;21.60;89.80
12413;DHT22;13877;18.896;-99.222;2023-06-05T11:45:42;21.60;86.40
12413;DHT22;13877;18.896;-99.222;2023-06-05T11:48:15;21.50;83.50
12413;DHT22;13877;18.896;-99.222;2023-06-05T11:51:05;21.60;81.30
12413;DHT22;13877;18.896;-99.222;2023-06-05T11:53:34;21.70;79.00
12413;DHT22;13877;18.896;-99.222;2023-06-05T11:56:13;21.80;78.00
12413;DHT22;13877;18.896;-99.222;2023-06-05T11:58:43;21.80;77.10
12413;DHT22;13877;18.896;-99.222;2023-06-05T12:01:17;21.80;74.80
12413;DHT22;13877;18.896;-99.222;2023-06-05T12:04:00;21.80;75.90
12413;DHT22;13877;18.896;-99.222;2023-06-05T12:06:28;21.70;75.20
12413;DHT22;13877;18.896;-99.222;2023-06-05T12:09:07;21.70;75.60
12413;DHT22;13877;18.896;-99.222;2023-06-05T12:11:38;21.70;76.30
12413;DHT22;13877;18.896;-99.222;2023-06-05T12:14:05;21.70;76.10
12413;DHT22;13877;18.896;-99.222;2023-06-05T12:16:34;21.70;76.40
12413;DHT22;13877;18.896;-99.222;2023-06-05T12:19:02;21.80;74.80
12413;DHT22;13877;18.896;-99.222;2023-06-05T12:21:30;21.80;74.80
12413;DHT22;13877;18.896;-99.222;2023-06-05T12:24:04;21.90;74.90
12413;DHT22;13877;18.896;-99.222;2023-06-05T12:26:50;22.00;73.60
12413;DHT22;13877;18.896;-99.222;2023-06-05T12:29:25;22.10;72.60
12413;DHT22;13877;18.896;-99.222;2023-06-05T12:31:55;22.20;72.50
12413;DHT22;13877;18.896;-99.222;2023-06-05T12:34:46;22.30;71.60
12413;DHT22;13877;18.896;-99.222;2023-06-05T12:37:27;22.30;70.90
12413;DHT22;13877;18.896;-99.222;2023-06-05T12:39:56;22.20;71.60
12413;DHT22;13877;18.896;-99.222;2023-06-05T12:42:25;22.30;71.20
12413;DHT22;13877;18.896;-99.222;2023-06-05T12:44:54;22.40;72.00
12413;DHT22;13877;18.896;-99.222;2023-06-05T12:47:29;22.50;71.80
12413;DHT22;13877;18.896;-99.222;2023-06-05T12:49:56;22.60;69.40
12413;DHT22;13877;18.896;-99.222;2023-06-05T12:52:25;22.70;69.90
12413;DHT22;13877;18.896;-99.222;2023-06-05T12:54:56;22.80;69.00
12413;DHT22;13877;18.896;-99.222;2023-06-05T12:57:24;23.00;70.10
12413;DHT22;13877;18.896;-99.222;2023-06-05T12:59:55;23.10;71.90
12413;DHT22;13877;18.896;-99.222;2023-06-05T13:02:23;23.30;73.00
12413;DHT22;13877;18.896;-99.222;2023-06-05T13:04:50;23.30;71.50
12413;DHT22;13877;18.896;-99.222;2023-06-05T13:07:17;23.50;72.40
12413;DHT22;13877;18.896;-99.222;2023-06-05T13:09:44;23.60;70.00
12413;DHT22;13877;18.896;-99.222;2023-06-05T13:12:11;23.90;67.90
12413;DHT22;13877;18.896;-99.222;2023-06-05T13:14:37;24.10;65.90
12413;DHT22;13877;18.896;-99.222;2023-06-05T13:17:05;24.20;66.70
12413;DHT22;13877;18.896;-99.222;2023-06-05T13:19:31;24.40;67.60
12413;DHT22;13877;18.896;-99.222;2023-06-05T13:21:59;24.50;66.20
12413;DHT22;13877;18.896;-99.222;2023-06-05T13:24:25;24.70;66.30
12413;DHT22;13877;18.896;-99.222;2023-06-05T13:26:52;24.90;66.90
12413;DHT22;13877;18.896;-99.222;2023-06-05T13:29:19;25.20;65.50
12413;DHT22;13877;18.896;-99.222;2023-06-05T13:31:46;25.40;66.40
12413;DHT22;13877;18.896;-99.222;2023-06-05T13:34:13;25.50;66.20
12413;DHT22;13877;18.896;-99.222;2023-06-05T13:36:40;25.30;67.60
12413;DHT22;13877;18.896;-99.222;2023-06-05T13:39:08;25.60;67.90
12413;DHT22;13877;18.896;-99.222;2023-06-05T13:41:35;25.60;68.00
12413;DHT22;13877;18.896;-99.222;2023-06-05T13:44:02;25.60;69.30
12413;DHT22;13877;18.896;-99.222;2023-06-05T13:46:29;25.50;69.10
12413;DHT22;13877;18.896;-99.222;2023-06-05T13:48:56;25.70;68.30
12413;DHT22;13877;18.896;-99.222;2023-06-05T13:51:26;25.80;69.70
12413;DHT22;13877;18.896;-99.222;2023-06-05T13:53:54;26.00;69.40
12413;DHT22;13877;18.896;-99.222;2023-06-05T13:56:23;26.20;68.90
12413;DHT22;13877;18.896;-99.222;2023-06-05T13:58:50;26.30;68.10
12413;DHT22;13877;18.896;-99.222;2023-06-05T14:01:17;26.40;67.50
12413;DHT22;13877;18.896;-99.222;2023-06-05T14:03:44;26.40;67.80
12413;DHT22;13877;18.896;-99.222;2023-06-05T14:06:13;26.30;67.80
12413;DHT22;13877;18.896;-99.222;2023-06-05T14:08:40;26.60;67.20
12413;DHT22;13877;18.896;-99.222;2023-06-05T14:11:07;26.40;69.90
12413;DHT22;13877;18.896;-99.222;2023-06-05T14:13:34;26.70;71.00
12413;DHT22;13877;18.896;-99.222;2023-06-05T14:16:02;26.90;71.60
12413;DHT22;13877;18.896;-99.222;2023-06-05T14:18:30;27.00;73.00
12413;DHT22;13877;18.896;-99.222;2023-06-05T14:20:57;26.90;74.40
12413;DHT22;13877;18.896;-99.222;2023-06-05T14:23:24;26.90;73.30
12413;DHT22;13877;18.896;-99.222;2023-06-05T14:25:51;27.20;73.70
12413;DHT22;13877;18.896;-99.222;2023-06-05T14:28:18;27.50;72.80
12413;DHT22;13877;18.896;-99.222;2023-06-05T14:30:49;27.10;73.50
12413;DHT22;13877;18.896;-99.222;2023-06-05T14:33:16;27.00;74.50
12413;DHT22;13877;18.896;-99.222;2023-06-05T14:35:44;27.50;73.30
12413;DHT22;13877;18.896;-99.222;2023-06-05T14:38:11;27.60;72.50
12413;DHT22;13877;18.896;-99.222;2023-06-05T14:40:39;27.60;73.10
12413;DHT22;13877;18.896;-99.222;2023-06-05T14:43:07;27.60;72.90
12413;DHT22;13877;18.896;-99.222;2023-06-05T14:45:34;27.60;73.10
12413;DHT22;13877;18.896;-99.222;2023-06-05T14:48:01;27.70;73.00
12413;DHT22;13877;18.896;-99.222;2023-06-05T14:50:28;27.70;72.40
12413;DHT22;13877;18.896;-99.222;2023-06-05T14:52:55;27.80;71.60
12413;DHT22;13877;18.896;-99.222;2023-06-05T14:55:22;27.10;72.90
12413;DHT22;13877;18.896;-99.222;2023-06-05T14:57:49;27.50;72.70
12413;DHT22;13877;18.896;-99.222;2023-06-05T15:00:16;27.80;72.40
12413;DHT22;13877;18.896;-99.222;2023-06-05T15:02:43;27.50;71.10
12413;DHT22;13877;18.896;-99.222;2023-06-05T15:05:10;27.30;70.90
12413;DHT22;13877;18.896;-99.222;2023-06-05T15:07:41;28.00;70.20
12413;DHT22;13877;18.896;-99.222;2023-06-05T15:10:09;28.30;68.90
12413;DHT22;13877;18.896;-99.222;2023-06-05T15:12:38;28.50;68.10
12413;DHT22;13877;18.896;-99.222;2023-06-05T15:15:07;28.40;69.30
12413;DHT22;13877;18.896;-99.222;2023-06-05T15:17:34;28.70;66.90
12413;DHT22;13877;18.896;-99.222;2023-06-05T15:20:01;28.30;67.90
12413;DHT22;13877;18.896;-99.222;2023-06-05T15:22:32;28.70;66.90
12413;DHT22;13877;18.896;-99.222;2023-06-05T15:24:59;28.50;67.20
12413;DHT22;13877;18.896;-99.222;2023-06-05T15:27:26;28.00;68.50
12413;DHT22;13877;18.896;-99.222;2023-06-05T15:29:53;28.70;66.70
12413;DHT22;13877;18.896;-99.222;2023-06-05T15:32:23;28.90;67.20
12413;DHT22;13877;18.896;-99.222;2023-06-05T15:34:51;28.90;66.50
12413;DHT22;13877;18.896;-99.222;2023-06-05T15:37:18;28.90;67.20
12413;DHT22;13877;18.896;-99.222;2023-06-05T15:39:45;29.30;66.90
12413;DHT22;13877;18.896;-99.222;2023-06-05T15:42:12;29.10;66.10